createdAt,value
2023-03-19T00:00:35.971Z,100961.13
2023-03-19T00:03:02.590Z,100956.97
2023-03-19T00:05:29.174Z,100968.19
2023-03-19T00:07:56.065Z,100971.16
2023-03-19T00:10:22.585Z,100964.88
2023-03-19T00:12:49.039Z,100958.00
2023-03-19T00:15:16.109Z,100965.09
2023-03-19T00:17:43.073Z,100965.28
2023-03-19T00:20:11.724Z,100962.44
2023-03-19T00:22:38.486Z,100957.19
2023-03-19T00:25:05.446Z,100963.00
2023-03-19T00:27:31.985Z,100961.97
2023-03-19T00:30:00.945Z,100965.81
2023-03-19T00:32:27.969Z,100970.94
2023-03-19T00:34:54.444Z,100959.31
2023-03-19T00:37:20.904Z,100956.66
2023-03-19T00:39:47.668Z,100956.81
2023-03-19T00:42:14.179Z,100962.03
2023-03-19T00:44:40.656Z,100953.06
2023-03-19T00:47:07.328Z,100954.09
2023-03-19T00:49:33.856Z,100957.91
2023-03-19T00:52:00.361Z,100963.69
2023-03-19T00:54:27.962Z,100958.53
2023-03-19T00:56:54.447Z,100959.81
2023-03-19T00:59:20.971Z,100970.50
2023-03-19T01:01:48.011Z,100964.06
2023-03-19T01:04:15.393Z,100965.72
2023-03-19T01:06:45.017Z,100962.03
2023-03-19T01:09:12.128Z,100959.03
2023-03-19T01:11:39.075Z,100966.22
2023-03-19T01:14:06.383Z,100965.84
2023-03-19T01:16:34.728Z,100958.91
2023-03-19T01:19:02.464Z,100969.75
2023-03-19T01:21:31.082Z,100962.22
2023-03-19T01:23:58.298Z,100971.41
2023-03-19T01:26:24.967Z,100964.38
2023-03-19T01:28:51.386Z,100959.91
2023-03-19T01:31:17.981Z,100969.94
2023-03-19T01:33:44.564Z,100962.44
2023-03-19T01:36:11.325Z,100959.69
2023-03-19T01:38:38.022Z,100954.63
2023-03-19T01:41:04.571Z,100952.75
2023-03-19T01:43:32.684Z,100958.63
2023-03-19T01:46:02.488Z,100954.50
2023-03-19T01:48:49.044Z,100951.13
2023-03-19T01:51:17.444Z,100960.97
2023-03-19T01:53:47.985Z,100948.25
2023-03-19T01:56:16.295Z,100955.41
2023-03-19T01:58:44.707Z,100945.06
2023-03-19T02:01:11.356Z,100945.59
2023-03-19T02:03:39.416Z,100947.97
2023-03-19T02:06:06.559Z,100950.03
2023-03-19T02:08:34.012Z,100943.59
2023-03-19T02:11:02.100Z,100945.03
2023-03-19T02:13:28.818Z,100947.47
2023-03-19T02:15:55.414Z,100952.31
2023-03-19T02:18:22.185Z,100942.84
2023-03-19T02:21:06.973Z,100938.91
2023-03-19T02:23:48.211Z,100938.44
2023-03-19T02:26:17.291Z,100936.84
2023-03-19T02:28:46.494Z,100947.00
2023-03-19T02:31:13.852Z,100944.59
2023-03-19T02:33:40.587Z,100947.53
2023-03-19T02:36:10.863Z,100945.25
2023-03-19T02:38:39.129Z,100939.75
2023-03-19T02:41:08.367Z,100952.50
2023-03-19T02:43:37.406Z,100945.94
2023-03-19T02:46:07.336Z,100946.44
2023-03-19T02:48:34.957Z,100939.81
2023-03-19T02:51:01.719Z,100946.72
2023-03-19T02:53:28.182Z,100938.06
2023-03-19T02:55:54.656Z,100942.63
2023-03-19T02:58:21.227Z,100950.31
2023-03-19T03:00:47.864Z,100939.50
2023-03-19T03:03:14.452Z,100940.94
2023-03-19T03:05:40.921Z,100937.63
2023-03-19T03:08:07.399Z,100946.41
2023-03-19T03:10:34.149Z,100946.63
2023-03-19T03:13:01.629Z,100944.97
2023-03-19T03:15:28.235Z,100953.53
2023-03-19T03:17:56.428Z,100945.66
2023-03-19T03:20:23.525Z,100944.97
2023-03-19T03:22:50.267Z,100934.41
2023-03-19T03:25:16.828Z,100940.84
2023-03-19T03:27:43.410Z,100940.31
2023-03-19T03:30:10.790Z,100944.03
2023-03-19T03:32:38.087Z,100949.78
2023-03-19T03:35:06.130Z,100943.75
2023-03-19T03:37:32.721Z,100951.91
2023-03-19T03:39:59.774Z,100948.50
2023-03-19T03:42:26.263Z,100943.63
2023-03-19T03:44:52.728Z,100945.44
2023-03-19T03:47:19.177Z,100945.34
2023-03-19T03:49:45.692Z,100941.97
2023-03-19T03:52:12.410Z,100944.16
2023-03-19T03:54:39.052Z,100957.63
2023-03-19T03:57:06.134Z,100955.63
2023-03-19T03:59:32.604Z,100950.75
2023-03-19T04:01:59.145Z,100955.22
2023-03-19T04:04:26.601Z,100952.75
2023-03-19T04:06:53.105Z,100953.06
2023-03-19T04:09:19.620Z,100961.41
2023-03-19T04:11:46.161Z,100957.31
2023-03-19T04:14:13.119Z,100953.47
2023-03-19T04:16:39.992Z,100963.16
2023-03-19T04:19:07.718Z,100955.31
2023-03-19T04:21:34.180Z,100952.63
2023-03-19T04:24:02.203Z,100952.88
2023-03-19T04:26:28.766Z,100958.16
2023-03-19T04:28:55.216Z,100957.81
2023-03-19T04:31:22.164Z,100961.19
2023-03-19T04:33:49.291Z,100950.53
2023-03-19T04:36:17.630Z,100963.44
2023-03-19T04:38:44.109Z,100960.78
2023-03-19T04:41:10.925Z,100966.22
2023-03-19T04:43:37.413Z,100956.88
2023-03-19T04:46:04.028Z,100959.13
2023-03-19T04:48:30.646Z,100958.28
2023-03-19T04:50:57.409Z,100957.38
2023-03-19T04:53:25.664Z,100960.91
2023-03-19T04:55:52.242Z,100964.00
2023-03-19T04:58:19.011Z,100963.81
2023-03-19T05:00:47.526Z,100954.00
2023-03-19T05:03:15.217Z,100955.22
2023-03-19T05:05:41.778Z,100954.28
2023-03-19T05:08:09.393Z,100957.09
2023-03-19T05:10:36.677Z,100954.84
2023-03-19T05:13:03.636Z,100947.22
2023-03-19T05:15:30.276Z,100952.63
2023-03-19T05:17:56.818Z,100957.78
2023-03-19T05:20:23.828Z,100947.03
2023-03-19T05:22:52.395Z,100950.75
2023-03-19T05:25:19.505Z,100945.41
2023-03-19T05:27:46.226Z,100943.09
2023-03-19T05:30:13.047Z,100951.16
2023-03-19T05:32:40.761Z,100948.16
2023-03-19T05:35:07.731Z,100948.13
2023-03-19T05:37:34.250Z,100949.09
2023-03-19T05:40:00.850Z,100950.03
2023-03-19T05:42:27.306Z,100952.38
2023-03-19T05:44:53.754Z,100947.47
2023-03-19T05:47:20.231Z,100953.69
2023-03-19T05:49:47.289Z,100956.56
2023-03-19T05:52:13.934Z,100955.09
2023-03-19T05:54:41.397Z,100956.34
2023-03-19T05:57:08.128Z,100964.47
2023-03-19T05:59:34.834Z,100955.16
2023-03-19T06:02:01.737Z,100953.91
2023-03-19T06:04:28.247Z,100955.75
2023-03-19T06:06:54.714Z,100949.47
2023-03-19T06:09:21.168Z,100971.34
2023-03-19T06:11:47.659Z,100958.53
2023-03-19T06:14:14.212Z,100957.72
2023-03-19T06:16:40.904Z,100953.28
2023-03-19T06:19:07.400Z,100956.00
2023-03-19T06:21:33.869Z,100958.53
2023-03-19T06:24:00.512Z,100955.09
2023-03-19T06:26:27.498Z,100960.25
2023-03-19T06:28:54.403Z,100958.53
2023-03-19T06:31:21.386Z,100963.81
2023-03-19T06:33:49.120Z,100968.25
2023-03-19T06:36:15.660Z,100974.28
2023-03-19T06:38:42.134Z,100969.00
2023-03-19T06:41:08.785Z,100970.75
2023-03-19T06:43:37.338Z,100969.88
2023-03-19T06:46:05.003Z,100970.28
2023-03-19T06:48:31.716Z,100972.88
2023-03-19T06:50:58.265Z,100977.50
2023-03-19T06:53:24.990Z,100987.31
2023-03-19T06:55:51.463Z,100979.44
2023-03-19T06:58:17.964Z,100971.69
2023-03-19T07:00:44.586Z,100982.25
2023-03-19T07:03:11.501Z,100980.50
2023-03-19T07:05:38.031Z,100986.69
2023-03-19T07:08:11.611Z,100986.72
2023-03-19T07:10:39.364Z,100991.06
2023-03-19T07:13:06.343Z,100988.88
2023-03-19T07:15:33.148Z,100998.88
2023-03-19T07:17:59.603Z,101003.25
2023-03-19T07:20:26.190Z,101001.75
2023-03-19T07:22:52.995Z,101004.56
2023-03-19T07:25:19.552Z,101009.13
2023-03-19T07:27:46.191Z,101002.31
2023-03-19T07:30:13.676Z,100999.81
2023-03-19T07:32:40.296Z,101006.00
2023-03-19T07:35:08.056Z,100999.31
2023-03-19T07:37:34.536Z,100997.31
2023-03-19T07:40:01.061Z,100999.94
2023-03-19T07:42:27.507Z,100994.75
2023-03-19T07:44:53.959Z,100995.69
2023-03-19T07:47:29.072Z,101001.81
2023-03-19T07:49:56.692Z,101002.00
2023-03-19T07:52:23.881Z,101004.59
2023-03-19T07:54:50.683Z,101008.78
2023-03-19T07:57:17.160Z,101005.06
2023-03-19T07:59:43.626Z,101005.88
2023-03-19T08:02:13.367Z,101010.38
2023-03-19T08:04:40.550Z,101016.47
2023-03-19T08:07:10.334Z,101023.44
2023-03-19T08:09:37.601Z,101017.59
2023-03-19T08:12:04.406Z,101021.31
2023-03-19T08:14:31.086Z,101017.84
2023-03-19T08:16:57.627Z,101013.50
2023-03-19T08:19:24.194Z,101009.13
2023-03-19T08:21:51.192Z,101012.63
2023-03-19T08:24:18.761Z,101012.59
2023-03-19T08:26:45.459Z,101017.81
2023-03-19T08:29:12.325Z,101016.13
2023-03-19T08:31:38.900Z,101014.34
2023-03-19T08:34:10.673Z,101010.81
2023-03-19T08:36:37.617Z,101007.38
2023-03-19T08:39:04.313Z,101026.59
2023-03-19T08:41:31.318Z,101023.09
2023-03-19T08:43:57.800Z,101015.25
2023-03-19T08:46:24.483Z,101016.97
2023-03-19T08:48:51.058Z,101014.28
2023-03-19T08:51:17.513Z,101015.97
2023-03-19T08:53:43.974Z,101017.75
2023-03-19T08:56:11.243Z,101022.09
2023-03-19T08:58:38.117Z,101017.69
2023-03-19T09:01:07.164Z,101023.88
2023-03-19T09:03:33.698Z,101022.69
2023-03-19T09:06:01.817Z,101025.28
2023-03-19T09:08:29.336Z,101026.19
2023-03-19T09:10:56.130Z,101025.03
2023-03-19T09:13:23.379Z,101030.25
2023-03-19T09:15:50.723Z,101037.59
2023-03-19T09:18:17.599Z,101035.84
2023-03-19T09:20:44.030Z,101035.53
2023-03-19T09:23:10.493Z,101031.94
2023-03-19T09:25:37.064Z,101036.44
2023-03-19T09:28:03.710Z,101037.63
2023-03-19T09:30:30.243Z,101037.75
2023-03-19T09:32:57.026Z,101039.75
2023-03-19T09:35:24.015Z,101037.19
2023-03-19T09:37:51.986Z,101038.94
2023-03-19T09:40:33.544Z,101042.81
2023-03-19T09:43:18.657Z,101037.09
2023-03-19T09:45:46.773Z,101046.91
2023-03-19T09:48:19.742Z,101037.56
2023-03-19T09:50:48.888Z,101041.91
2023-03-19T09:53:18.356Z,101042.19
2023-03-19T09:55:52.754Z,101042.19
2023-03-19T09:58:26.251Z,101044.22
2023-03-19T10:00:55.872Z,101058.44
2023-03-19T10:03:35.357Z,101049.00
2023-03-19T10:06:25.682Z,101053.66
2023-03-19T10:09:01.053Z,101059.13
2023-03-19T10:11:38.089Z,101058.09
2023-03-19T10:14:42.539Z,101053.00
2023-03-19T10:17:17.861Z,101060.19
2023-03-19T10:19:55.810Z,101057.88
2023-03-19T10:22:27.156Z,101065.28
2023-03-19T10:24:55.251Z,101068.31
2023-03-19T10:27:23.722Z,101065.63
2023-03-19T10:29:50.198Z,101061.06
2023-03-19T10:32:45.376Z,101063.22
2023-03-19T10:35:20.571Z,101065.31
2023-03-19T10:37:48.768Z,101066.34
2023-03-19T10:40:21.895Z,101077.94
2023-03-19T10:43:04.500Z,101076.38
2023-03-19T10:45:38.975Z,101071.88
2023-03-19T10:48:06.513Z,101070.03
2023-03-19T10:50:36.770Z,101075.41
2023-03-19T10:53:32.611Z,101072.75
2023-03-19T10:56:18.961Z,101077.59
2023-03-19T10:59:07.326Z,101077.25
2023-03-19T11:01:35.970Z,101087.94
2023-03-19T11:04:12.675Z,101087.00
2023-03-19T11:06:39.798Z,101089.25
2023-03-19T11:09:09.227Z,101080.44
2023-03-19T11:11:42.614Z,101089.22
2023-03-19T11:14:26.341Z,101085.31
2023-03-19T11:17:18.789Z,101085.16
2023-03-19T11:19:52.719Z,101087.72
2023-03-19T11:22:24.759Z,101093.97
2023-03-19T11:24:55.614Z,101097.13
2023-03-19T11:27:34.993Z,101095.47
2023-03-19T11:30:13.478Z,101093.22
2023-03-19T11:33:07.094Z,101093.22
2023-03-19T11:36:07.999Z,101089.66
2023-03-19T11:38:57.123Z,101090.47
2023-03-19T11:41:51.057Z,101095.47
2023-03-19T11:44:28.299Z,101088.16
2023-03-19T11:47:06.818Z,101089.84
2023-03-19T11:49:50.770Z,101089.38
2023-03-19T11:52:32.632Z,101098.41
2023-03-19T11:55:23.660Z,101087.34
2023-03-19T11:58:01.931Z,101092.66
2023-03-19T12:00:31.475Z,101091.41
2023-03-19T12:03:45.806Z,101088.88
2023-03-19T12:07:03.410Z,101093.50
2023-03-19T12:09:53.243Z,101096.22
2023-03-19T12:12:49.049Z,101095.69
2023-03-19T12:15:33.244Z,101090.69
2023-03-19T12:18:08.928Z,101090.66
2023-03-19T12:20:57.826Z,101087.34
2023-03-19T12:23:57.661Z,101089.09
2023-03-19T12:26:40.442Z,101092.03
2023-03-19T12:29:09.828Z,101097.59
2023-03-19T12:31:48.925Z,101086.66
2023-03-19T12:34:38.523Z,101089.97
2023-03-19T12:37:13.940Z,101086.00
2023-03-19T12:39:55.854Z,101090.56
2023-03-19T12:42:32.861Z,101081.28
2023-03-19T12:45:01.026Z,101086.63
2023-03-19T12:47:32.624Z,101080.72
2023-03-19T12:50:08.552Z,101079.81
2023-03-19T12:52:39.810Z,101076.09
2023-03-19T12:55:12.391Z,101075.88
2023-03-19T12:57:51.833Z,101085.91
2023-03-19T13:00:21.678Z,101081.38
2023-03-19T13:03:07.872Z,101082.03
2023-03-19T13:05:41.793Z,101090.28
2023-03-19T13:08:19.040Z,101087.69
2023-03-19T13:10:45.568Z,101084.06
2023-03-19T13:13:27.326Z,101089.09
2023-03-19T13:15:58.207Z,101084.84
2023-03-19T13:18:54.998Z,101087.00
2023-03-19T13:21:31.530Z,101079.66
2023-03-19T13:24:38.436Z,101079.47
2023-03-19T13:27:07.267Z,101088.06
2023-03-19T13:29:36.883Z,101093.59
2023-03-19T13:32:09.080Z,101083.06
2023-03-19T13:34:37.299Z,101085.56
2023-03-19T13:37:18.417Z,101082.94
2023-03-19T13:39:48.408Z,101079.31
2023-03-19T13:42:41.328Z,101074.13
2023-03-19T13:45:20.041Z,101074.13
2023-03-19T13:47:49.100Z,101068.56
2023-03-19T13:50:18.683Z,101066.72
2023-03-19T13:52:45.097Z,101058.53
2023-03-19T13:55:49.577Z,101067.56
2023-03-19T13:58:43.462Z,101072.00
2023-03-19T14:01:12.063Z,101065.25
2023-03-19T14:03:56.685Z,101057.53
2023-03-19T14:06:34.875Z,101061.22
2023-03-19T14:09:01.611Z,101060.22
2023-03-19T14:11:34.226Z,101050.47
2023-03-19T14:14:06.432Z,101058.47
2023-03-19T14:16:38.361Z,101054.91
2023-03-19T14:19:11.577Z,101049.09
2023-03-19T14:22:00.279Z,101049.09
2023-03-19T14:27:33.095Z,101057.88
2023-03-19T14:30:10.170Z,101048.59
2023-03-19T14:32:41.136Z,101054.84
2023-03-19T14:35:08.596Z,101057.13
2023-03-19T14:37:38.039Z,101060.22
2023-03-19T14:40:15.012Z,101058.50
2023-03-19T14:43:06.552Z,101062.03
2023-03-19T14:45:54.343Z,101064.44
2023-03-19T14:48:32.803Z,101060.19
2023-03-19T14:51:05.751Z,101067.34
2023-03-19T14:53:44.720Z,101078.75
2023-03-19T14:56:19.260Z,101070.88
2023-03-19T14:58:56.899Z,101071.88
2023-03-19T15:01:27.007Z,101073.72
2023-03-19T15:04:00.383Z,101077.56
2023-03-19T15:06:33.469Z,101079.50
2023-03-19T15:09:02.308Z,101073.47
2023-03-19T15:11:51.470Z,101079.53
2023-03-19T15:14:39.997Z,101073.31
2023-03-19T15:17:13.331Z,101073.84
2023-03-19T15:19:40.298Z,101081.91
2023-03-19T15:22:13.466Z,101073.78
2023-03-19T15:24:39.951Z,101075.97
2023-03-19T15:27:20.375Z,101080.44
2023-03-19T15:29:49.279Z,101076.94
2023-03-19T15:32:49.769Z,101075.09
2023-03-19T15:35:23.449Z,101076.81
2023-03-19T15:37:54.360Z,101086.50
2023-03-19T15:40:22.712Z,101089.25
2023-03-19T15:42:51.244Z,101090.34
2023-03-19T15:45:24.350Z,101087.78
2023-03-19T15:48:05.629Z,101078.03
2023-03-19T15:50:36.452Z,101083.34
2023-03-19T15:53:07.380Z,101083.47
2023-03-19T15:55:35.997Z,101090.44
2023-03-19T15:58:07.069Z,101092.19
2023-03-19T16:00:39.770Z,101097.44
2023-03-19T16:03:07.331Z,101100.88
2023-03-19T16:05:34.052Z,101103.56
2023-03-19T16:08:03.142Z,101107.91
2023-03-19T16:10:40.951Z,101096.56
2023-03-19T16:13:25.883Z,101115.81
2023-03-19T16:16:03.564Z,101114.06
2023-03-19T16:18:38.713Z,101124.50
2023-03-19T16:21:09.237Z,101121.84
2023-03-19T16:23:50.502Z,101115.72
2023-03-19T16:26:25.919Z,101111.31
2023-03-19T16:29:04.085Z,101118.44
2023-03-19T16:31:33.981Z,101127.16
2023-03-19T16:34:00.900Z,101123.69
2023-03-19T16:36:33.281Z,101133.25
2023-03-19T16:39:30.896Z,101134.13
2023-03-19T16:42:27.533Z,101135.78
2023-03-19T16:44:53.990Z,101143.81
2023-03-19T16:47:22.644Z,101137.69
2023-03-19T16:49:49.245Z,101147.19
2023-03-19T16:52:19.916Z,101138.41
2023-03-19T16:54:46.596Z,101134.19
2023-03-19T16:57:14.231Z,101137.72
2023-03-19T16:59:40.853Z,101132.44
2023-03-19T17:02:14.223Z,101140.28
2023-03-19T17:04:40.879Z,101146.41
2023-03-19T17:07:08.451Z,101144.69
2023-03-19T17:09:35.583Z,101142.06
2023-03-19T17:12:03.310Z,101148.16
2023-03-19T17:14:30.997Z,101153.41
2023-03-19T17:16:58.015Z,101151.66
2023-03-19T17:19:35.001Z,101153.25
2023-03-19T17:22:02.318Z,101161.09
2023-03-19T17:24:32.010Z,101160.34
2023-03-19T17:27:00.692Z,101162.88
2023-03-19T17:29:27.347Z,101168.97
2023-03-19T17:31:56.708Z,101172.41
2023-03-19T17:34:28.079Z,101168.88
2023-03-19T17:36:57.342Z,101170.50
2023-03-19T17:39:24.921Z,101176.72
2023-03-19T17:41:51.646Z,101173.31
2023-03-19T17:44:18.144Z,101186.53
2023-03-19T17:46:46.368Z,101180.34
2023-03-19T17:49:21.684Z,101180.25
2023-03-19T17:51:48.256Z,101193.31
2023-03-19T17:54:14.851Z,101187.88
2023-03-19T17:56:43.400Z,101201.75
2023-03-19T17:59:10.951Z,101198.19
2023-03-19T18:01:38.274Z,101193.72
2023-03-19T18:04:04.827Z,101204.97
2023-03-19T18:06:34.739Z,101201.56
2023-03-19T18:09:01.333Z,101215.50
2023-03-19T18:11:27.785Z,101205.16
2023-03-19T18:13:54.272Z,101207.75
2023-03-19T18:16:31.922Z,101210.91
2023-03-19T18:19:01.165Z,101206.44
2023-03-19T18:21:28.371Z,101216.16
2023-03-19T18:23:56.769Z,101216.97
2023-03-19T18:26:24.103Z,101222.91
2023-03-19T18:28:50.626Z,101223.50
2023-03-19T18:31:19.298Z,101224.00
2023-03-19T18:33:49.691Z,101227.53
2023-03-19T18:36:18.886Z,101234.66
2023-03-19T18:38:45.783Z,101236.81
2023-03-19T18:41:18.626Z,101238.91
2023-03-19T18:43:45.753Z,101243.13
2023-03-19T18:46:14.432Z,101249.84
2023-03-19T18:48:41.034Z,101254.03
2023-03-19T18:51:10.716Z,101251.09
2023-03-19T18:53:37.572Z,101261.31
2023-03-19T18:56:07.839Z,101268.63
2023-03-19T18:58:34.953Z,101268.97
2023-03-19T19:01:04.372Z,101263.84
2023-03-19T19:03:31.705Z,101268.25
2023-03-19T19:05:58.166Z,101268.44
2023-03-19T19:08:26.751Z,101272.03
2023-03-19T19:10:58.987Z,101274.44
2023-03-19T19:13:28.978Z,101279.81
2023-03-19T19:15:55.843Z,101275.38
2023-03-19T19:18:27.101Z,101283.06
2023-03-19T19:20:54.038Z,101285.28
2023-03-19T19:23:22.047Z,101296.63
2023-03-19T19:25:51.042Z,101298.94
2023-03-19T19:28:26.809Z,101301.44
2023-03-19T19:30:55.579Z,101304.19
2023-03-19T19:33:24.425Z,101303.88
2023-03-19T19:35:52.118Z,101308.78
2023-03-19T19:38:20.114Z,101304.81
2023-03-19T19:40:49.933Z,101301.47
2023-03-19T19:43:22.549Z,101297.06
2023-03-19T19:45:51.633Z,101309.31
2023-03-19T19:48:26.163Z,101307.84
2023-03-19T19:50:53.757Z,101310.91
2023-03-19T19:53:20.795Z,101311.63
2023-03-19T19:55:47.462Z,101310.44
2023-03-19T19:58:23.576Z,101321.63
2023-03-19T20:01:02.266Z,101308.41
2023-03-19T20:03:32.257Z,101317.06
2023-03-19T20:05:59.938Z,101324.66
2023-03-19T20:08:27.235Z,101312.69
2023-03-19T20:10:54.439Z,101312.09
2023-03-19T20:13:30.073Z,101321.69
2023-03-19T20:15:58.472Z,101326.78
2023-03-19T20:18:30.473Z,101323.66
2023-03-19T20:20:58.186Z,101327.03
2023-03-19T20:23:24.635Z,101331.09
2023-03-19T20:25:51.728Z,101331.34
2023-03-19T20:28:24.840Z,101331.31
2023-03-19T20:30:53.984Z,101327.84
2023-03-19T20:33:21.570Z,101340.34
2023-03-19T20:35:48.441Z,101340.75
2023-03-19T20:38:15.438Z,101335.88
2023-03-19T20:40:53.569Z,101339.94
2023-03-19T20:43:33.121Z,101335.56
2023-03-19T20:46:02.588Z,101337.34
2023-03-19T20:48:30.661Z,101327.22
2023-03-19T20:50:58.341Z,101329.53
2023-03-19T20:53:25.010Z,101334.34
2023-03-19T20:55:52.271Z,101342.97
2023-03-19T20:58:27.589Z,101344.75
2023-03-19T21:00:56.437Z,101332.41
2023-03-19T21:03:30.216Z,101343.31
2023-03-19T21:06:02.266Z,101344.03
2023-03-19T21:08:34.740Z,101350.53
2023-03-19T21:11:01.809Z,101348.16
2023-03-19T21:13:28.847Z,101356.69
2023-03-19T21:15:55.827Z,101350.28
2023-03-19T21:18:22.456Z,101359.34
2023-03-19T21:20:53.900Z,101368.53
2023-03-19T21:23:28.093Z,101365.00
2023-03-19T21:25:54.624Z,101371.84
2023-03-19T21:28:28.544Z,101363.53
2023-03-19T21:30:55.051Z,101362.78
2023-03-19T21:33:27.278Z,101364.75
2023-03-19T21:35:54.812Z,101366.00
2023-03-19T21:38:22.417Z,101354.22
2023-03-19T21:40:50.519Z,101356.84
2023-03-19T21:43:36.617Z,101353.56
2023-03-19T21:46:17.563Z,101351.84
2023-03-19T21:48:49.509Z,101347.91
2023-03-19T21:51:16.620Z,101348.16
2023-03-19T21:53:43.823Z,101347.09
2023-03-19T21:56:22.228Z,101358.59
2023-03-19T21:58:50.748Z,101345.72
2023-03-19T22:01:20.688Z,101349.34
2023-03-19T22:03:47.457Z,101351.47
2023-03-19T22:06:14.240Z,101348.25
2023-03-19T22:08:41.654Z,101356.69
2023-03-19T22:11:17.645Z,101354.59
2023-03-19T22:13:44.580Z,101364.94
2023-03-19T22:16:23.907Z,101365.44
2023-03-19T22:18:51.523Z,101371.91
2023-03-19T22:21:20.335Z,101373.16
2023-03-19T22:23:47.570Z,101366.69
2023-03-19T22:26:29.962Z,101359.31
2023-03-19T22:28:58.223Z,101359.06
2023-03-19T22:31:24.920Z,101353.88
2023-03-19T22:33:51.572Z,101348.66
2023-03-19T22:36:18.410Z,101354.22
2023-03-19T22:38:45.012Z,101334.03
2023-03-19T22:41:25.184Z,101340.75
2023-03-19T22:43:51.770Z,101335.50
2023-03-19T22:46:18.997Z,101338.03
2023-03-19T22:48:50.326Z,101343.66
2023-03-19T22:51:19.112Z,101333.41
2023-03-19T22:53:46.213Z,101338.28
2023-03-19T22:56:14.039Z,101330.84
2023-03-19T22:58:41.629Z,101336.25
2023-03-19T23:01:28.913Z,101335.69
2023-03-19T23:03:56.244Z,101339.69
2023-03-19T23:06:30.637Z,101333.63
2023-03-19T23:08:58.427Z,101338.03
2023-03-19T23:11:25.617Z,101331.00
2023-03-19T23:13:52.564Z,101332.06
2023-03-19T23:16:23.451Z,101334.72
2023-03-19T23:18:50.317Z,101338.13
2023-03-19T23:21:18.331Z,101333.50
2023-03-19T23:23:45.551Z,101343.16
2023-03-19T23:26:25.418Z,101337.72
2023-03-19T23:28:52.665Z,101337.81
2023-03-19T23:31:19.982Z,101339.03
2023-03-19T23:33:46.625Z,101331.66
2023-03-19T23:36:13.424Z,101341.38
2023-03-19T23:38:39.939Z,101326.94
2023-03-19T23:41:07.322Z,101340.97
2023-03-19T23:43:34.237Z,101336.63
2023-03-19T23:46:01.080Z,101339.59
2023-03-19T23:48:35.390Z,101339.63
2023-03-19T23:51:02.408Z,101335.56
2023-03-19T23:53:29.774Z,101336.25
2023-03-19T23:56:03.144Z,101341.50
2023-03-19T23:58:39.962Z,101341.47
